sensor_id;sensor_type;location;lat;lon;timestamp;P1;durP1;ratioP1;P2;durP2;ratioP2
75465;SDS011;64049;46.290;44.240;2022-12-29T00:00:01;8.95;;;3.95;;
75465;SDS011;64049;46.290;44.240;2022-12-29T00:02:38;6.47;;;2.92;;
75465;SDS011;64049;46.290;44.240;2022-12-29T00:05:06;9.77;;;4.57;;
75465;SDS011;64049;46.290;44.240;2022-12-29T00:07:32;10.68;;;3.95;;
75465;SDS011;64049;46.290;44.240;2022-12-29T00:09:58;8.00;;;3.67;;
75465;SDS011;64049;46.290;44.240;2022-12-29T00:12:24;9.93;;;4.18;;
75465;SDS011;64049;46.290;44.240;2022-12-29T00:14:50;8.88;;;3.92;;
75465;SDS011;64049;46.290;44.240;2022-12-29T00:17:34;9.73;;;5.10;;
75465;SDS011;64049;46.290;44.240;2022-12-29T00:20:00;16.77;;;6.18;;
75465;SDS011;64049;46.290;44.240;2022-12-29T00:22:45;12.60;;;6.60;;
75465;SDS011;64049;46.290;44.240;2022-12-29T00:25:30;11.88;;;5.70;;
75465;SDS011;64049;46.290;44.240;2022-12-29T00:28:14;14.73;;;7.25;;
75465;SDS011;64049;46.290;44.240;2022-12-29T00:31:00;10.60;;;4.53;;
75465;SDS011;64049;46.290;44.240;2022-12-29T00:33:44;16.65;;;6.53;;
75465;SDS011;64049;46.290;44.240;2022-12-29T00:36:32;11.00;;;5.82;;
75465;SDS011;64049;46.290;44.240;2022-12-29T00:39:11;13.73;;;5.72;;
75465;SDS011;64049;46.290;44.240;2022-12-29T00:42:04;10.60;;;4.65;;
75465;SDS011;64049;46.290;44.240;2022-12-29T00:44:51;11.75;;;5.38;;
75465;SDS011;64049;46.290;44.240;2022-12-29T00:47:17;8.43;;;3.40;;
75465;SDS011;64049;46.290;44.240;2022-12-29T00:49:43;7.63;;;3.97;;
75465;SDS011;64049;46.290;44.240;2022-12-29T00:52:10;10.10;;;4.18;;
75465;SDS011;64049;46.290;44.240;2022-12-29T00:54:38;12.55;;;4.70;;
75465;SDS011;64049;46.290;44.240;2022-12-29T00:57:06;8.70;;;3.83;;
75465;SDS011;64049;46.290;44.240;2022-12-29T00:59:37;9.50;;;5.13;;
75465;SDS011;64049;46.290;44.240;2022-12-29T01:02:04;10.63;;;4.15;;
75465;SDS011;64049;46.290;44.240;2022-12-29T01:04:30;9.77;;;4.10;;
75465;SDS011;64049;46.290;44.240;2022-12-29T01:06:56;10.07;;;4.95;;
75465;SDS011;64049;46.290;44.240;2022-12-29T01:09:22;11.90;;;3.88;;
75465;SDS011;64049;46.290;44.240;2022-12-29T01:12:07;13.45;;;4.38;;
75465;SDS011;64049;46.290;44.240;2022-12-29T01:14:34;17.88;;;7.53;;
75465;SDS011;64049;46.290;44.240;2022-12-29T01:17:02;6.68;;;3.38;;
75465;SDS011;64049;46.290;44.240;2022-12-29T01:19:28;13.32;;;6.30;;
75465;SDS011;64049;46.290;44.240;2022-12-29T01:21:55;11.45;;;6.13;;
75465;SDS011;64049;46.290;44.240;2022-12-29T01:26:51;13.80;;;7.07;;
75465;SDS011;64049;46.290;44.240;2022-12-29T01:29:17;14.73;;;7.47;;
75465;SDS011;64049;46.290;44.240;2022-12-29T01:31:44;6.53;;;3.38;;
75465;SDS011;64049;46.290;44.240;2022-12-29T01:34:10;12.65;;;4.60;;
75465;SDS011;64049;46.290;44.240;2022-12-29T01:36:37;12.52;;;4.55;;
75465;SDS011;64049;46.290;44.240;2022-12-29T01:39:03;10.00;;;5.45;;
75465;SDS011;64049;46.290;44.240;2022-12-29T01:41:29;14.57;;;5.45;;
75465;SDS011;64049;46.290;44.240;2022-12-29T01:43:56;12.93;;;4.93;;
75465;SDS011;64049;46.290;44.240;2022-12-29T01:46:37;11.77;;;4.95;;
75465;SDS011;64049;46.290;44.240;2022-12-29T01:49:16;11.23;;;5.30;;
75465;SDS011;64049;46.290;44.240;2022-12-29T01:51:45;14.13;;;5.82;;
75465;SDS011;64049;46.290;44.240;2022-12-29T01:54:26;11.45;;;5.05;;
75465;SDS011;64049;46.290;44.240;2022-12-29T01:56:56;15.20;;;6.28;;
75465;SDS011;64049;46.290;44.240;2022-12-29T01:59:27;13.63;;;5.70;;
75465;SDS011;64049;46.290;44.240;2022-12-29T02:01:58;11.48;;;5.65;;
75465;SDS011;64049;46.290;44.240;2022-12-29T02:04:25;16.35;;;6.05;;
75465;SDS011;64049;46.290;44.240;2022-12-29T02:06:55;17.35;;;7.68;;
75465;SDS011;64049;46.290;44.240;2022-12-29T02:09:26;11.10;;;4.43;;
75465;SDS011;64049;46.290;44.240;2022-12-29T02:11:52;13.25;;;5.68;;
75465;SDS011;64049;46.290;44.240;2022-12-29T02:14:27;7.63;;;4.25;;
75465;SDS011;64049;46.290;44.240;2022-12-29T02:27:31;13.43;;;6.40;;
75465;SDS011;64049;46.290;44.240;2022-12-29T02:30:03;10.75;;;4.50;;
75465;SDS011;64049;46.290;44.240;2022-12-29T02:32:45;17.55;;;7.55;;
75465;SDS011;64049;46.290;44.240;2022-12-29T02:41:12;13.18;;;6.68;;
75465;SDS011;64049;46.290;44.240;2022-12-29T02:49:28;19.88;;;7.95;;
75465;SDS011;64049;46.290;44.240;2022-12-29T02:54:28;17.15;;;8.48;;
75465;SDS011;64049;46.290;44.240;2022-12-29T02:57:30;13.05;;;5.90;;
75465;SDS011;64049;46.290;44.240;2022-12-29T03:00:12;14.18;;;8.07;;
75465;SDS011;64049;46.290;44.240;2022-12-29T03:16:59;11.40;;;4.80;;
75465;SDS011;64049;46.290;44.240;2022-12-29T03:19:35;12.50;;;6.90;;
75465;SDS011;64049;46.290;44.240;2022-12-29T03:22:08;10.75;;;4.75;;
75465;SDS011;64049;46.290;44.240;2022-12-29T03:25:03;9.00;;;5.40;;
75465;SDS011;64049;46.290;44.240;2022-12-29T03:27:32;11.80;;;4.72;;
75465;SDS011;64049;46.290;44.240;2022-12-29T03:30:04;9.32;;;5.45;;
75465;SDS011;64049;46.290;44.240;2022-12-29T03:32:36;6.25;;;1.83;;
75465;SDS011;64049;46.290;44.240;2022-12-29T03:35:13;11.48;;;4.20;;
75465;SDS011;64049;46.290;44.240;2022-12-29T03:37:49;15.25;;;4.88;;
75465;SDS011;64049;46.290;44.240;2022-12-29T03:40:23;14.38;;;5.03;;
75465;SDS011;64049;46.290;44.240;2022-12-29T03:42:51;11.40;;;5.32;;
75465;SDS011;64049;46.290;44.240;2022-12-29T03:45:19;15.52;;;6.78;;
75465;SDS011;64049;46.290;44.240;2022-12-29T03:47:45;18.40;;;6.90;;
75465;SDS011;64049;46.290;44.240;2022-12-29T03:50:12;14.27;;;5.20;;
75465;SDS011;64049;46.290;44.240;2022-12-29T03:55:11;16.50;;;7.55;;
75465;SDS011;64049;46.290;44.240;2022-12-29T03:57:38;15.25;;;5.13;;
75465;SDS011;64049;46.290;44.240;2022-12-29T04:00:07;9.10;;;4.20;;
75465;SDS011;64049;46.290;44.240;2022-12-29T04:02:48;15.50;;;6.47;;
75465;SDS011;64049;46.290;44.240;2022-12-29T04:05:19;26.50;;;8.52;;
75465;SDS011;64049;46.290;44.240;2022-12-29T04:07:46;12.90;;;5.43;;
75465;SDS011;64049;46.290;44.240;2022-12-29T04:10:13;12.00;;;4.38;;
75465;SDS011;64049;46.290;44.240;2022-12-29T04:12:39;16.65;;;6.28;;
75465;SDS011;64049;46.290;44.240;2022-12-29T04:15:07;9.27;;;4.00;;
75465;SDS011;64049;46.290;44.240;2022-12-29T04:17:34;17.05;;;7.60;;
75465;SDS011;64049;46.290;44.240;2022-12-29T04:20:02;12.00;;;4.82;;
75465;SDS011;64049;46.290;44.240;2022-12-29T04:22:47;15.77;;;7.53;;
75465;SDS011;64049;46.290;44.240;2022-12-29T04:25:13;6.82;;;3.35;;
75465;SDS011;64049;46.290;44.240;2022-12-29T04:27:40;20.05;;;7.47;;
75465;SDS011;64049;46.290;44.240;2022-12-29T04:30:29;16.20;;;8.30;;
75465;SDS011;64049;46.290;44.240;2022-12-29T04:35:46;14.93;;;7.88;;
75465;SDS011;64049;46.290;44.240;2022-12-29T04:38:13;10.85;;;5.55;;
75465;SDS011;64049;46.290;44.240;2022-12-29T04:40:41;21.33;;;11.73;;
75465;SDS011;64049;46.290;44.240;2022-12-29T04:43:10;18.65;;;9.20;;
75465;SDS011;64049;46.290;44.240;2022-12-29T04:46:12;13.45;;;6.35;;
75465;SDS011;64049;46.290;44.240;2022-12-29T04:48:52;16.05;;;7.72;;
75465;SDS011;64049;46.290;44.240;2022-12-29T04:51:36;12.55;;;4.97;;
75465;SDS011;64049;46.290;44.240;2022-12-29T04:57:26;12.63;;;6.38;;
75465;SDS011;64049;46.290;44.240;2022-12-29T04:59:55;19.05;;;7.72;;
75465;SDS011;64049;46.290;44.240;2022-12-29T05:02:21;15.20;;;6.32;;
75465;SDS011;64049;46.290;44.240;2022-12-29T05:07:49;18.40;;;8.23;;
75465;SDS011;64049;46.290;44.240;2022-12-29T05:10:17;16.00;;;6.38;;
75465;SDS011;64049;46.290;44.240;2022-12-29T05:12:43;13.10;;;4.28;;
75465;SDS011;64049;46.290;44.240;2022-12-29T05:15:11;15.43;;;7.07;;
75465;SDS011;64049;46.290;44.240;2022-12-29T05:17:37;13.13;;;6.05;;
75465;SDS011;64049;46.290;44.240;2022-12-29T05:20:05;13.40;;;6.72;;
75465;SDS011;64049;46.290;44.240;2022-12-29T05:22:32;18.02;;;9.02;;
75465;SDS011;64049;46.290;44.240;2022-12-29T05:28:08;10.40;;;5.05;;
75465;SDS011;64049;46.290;44.240;2022-12-29T05:30:44;15.05;;;5.75;;
75465;SDS011;64049;46.290;44.240;2022-12-29T05:35:46;8.00;;;3.90;;
75465;SDS011;64049;46.290;44.240;2022-12-29T05:38:12;14.65;;;6.75;;
75465;SDS011;64049;46.290;44.240;2022-12-29T05:40:39;20.52;;;9.25;;
75465;SDS011;64049;46.290;44.240;2022-12-29T05:43:16;15.45;;;6.32;;
75465;SDS011;64049;46.290;44.240;2022-12-29T05:46:00;7.72;;;4.45;;
75465;SDS011;64049;46.290;44.240;2022-12-29T05:48:55;15.30;;;5.47;;
75465;SDS011;64049;46.290;44.240;2022-12-29T05:51:33;12.00;;;5.53;;
75465;SDS011;64049;46.290;44.240;2022-12-29T05:53:59;11.98;;;5.75;;
75465;SDS011;64049;46.290;44.240;2022-12-29T05:56:25;15.95;;;8.85;;
75465;SDS011;64049;46.290;44.240;2022-12-29T05:58:56;13.55;;;7.93;;
75465;SDS011;64049;46.290;44.240;2022-12-29T06:01:23;9.60;;;4.05;;
75465;SDS011;64049;46.290;44.240;2022-12-29T06:03:49;11.60;;;4.72;;
75465;SDS011;64049;46.290;44.240;2022-12-29T06:06:18;14.95;;;4.18;;
75465;SDS011;64049;46.290;44.240;2022-12-29T06:08:45;12.05;;;4.47;;
75465;SDS011;64049;46.290;44.240;2022-12-29T06:11:12;14.77;;;5.43;;
75465;SDS011;64049;46.290;44.240;2022-12-29T06:13:43;13.02;;;4.80;;
75465;SDS011;64049;46.290;44.240;2022-12-29T06:16:09;12.75;;;6.35;;
75465;SDS011;64049;46.290;44.240;2022-12-29T06:18:36;10.57;;;4.13;;
75465;SDS011;64049;46.290;44.240;2022-12-29T06:21:03;12.43;;;6.65;;
75465;SDS011;64049;46.290;44.240;2022-12-29T06:23:30;12.80;;;6.20;;
75465;SDS011;64049;46.290;44.240;2022-12-29T06:25:57;12.55;;;3.50;;
75465;SDS011;64049;46.290;44.240;2022-12-29T06:28:23;15.07;;;5.93;;
75465;SDS011;64049;46.290;44.240;2022-12-29T06:30:49;12.82;;;4.80;;
75465;SDS011;64049;46.290;44.240;2022-12-29T06:33:18;10.70;;;4.45;;
75465;SDS011;64049;46.290;44.240;2022-12-29T06:35:44;11.05;;;5.47;;
75465;SDS011;64049;46.290;44.240;2022-12-29T06:38:11;11.13;;;4.28;;
75465;SDS011;64049;46.290;44.240;2022-12-29T06:40:37;7.20;;;3.20;;
75465;SDS011;64049;46.290;44.240;2022-12-29T06:43:21;11.38;;;5.15;;
75465;SDS011;64049;46.290;44.240;2022-12-29T06:46:04;8.45;;;4.40;;
75465;SDS011;64049;46.290;44.240;2022-12-29T06:48:30;6.95;;;3.85;;
75465;SDS011;64049;46.290;44.240;2022-12-29T06:50:56;12.75;;;4.13;;
75465;SDS011;64049;46.290;44.240;2022-12-29T06:53:22;12.77;;;4.47;;
75465;SDS011;64049;46.290;44.240;2022-12-29T06:55:48;12.95;;;5.47;;
75465;SDS011;64049;46.290;44.240;2022-12-29T06:58:14;10.82;;;4.65;;
75465;SDS011;64049;46.290;44.240;2022-12-29T07:00:40;10.95;;;4.50;;
75465;SDS011;64049;46.290;44.240;2022-12-29T07:03:05;10.55;;;5.75;;
75465;SDS011;64049;46.290;44.240;2022-12-29T07:05:31;10.70;;;4.15;;
75465;SDS011;64049;46.290;44.240;2022-12-29T07:07:58;9.88;;;4.22;;
75465;SDS011;64049;46.290;44.240;2022-12-29T07:10:24;12.80;;;5.30;;
75465;SDS011;64049;46.290;44.240;2022-12-29T07:12:50;12.23;;;4.88;;
75465;SDS011;64049;46.290;44.240;2022-12-29T07:15:16;8.00;;;3.72;;
75465;SDS011;64049;46.290;44.240;2022-12-29T07:17:42;8.93;;;4.47;;
75465;SDS011;64049;46.290;44.240;2022-12-29T07:20:08;15.35;;;7.45;;
75465;SDS011;64049;46.290;44.240;2022-12-29T07:22:34;13.63;;;6.15;;
75465;SDS011;64049;46.290;44.240;2022-12-29T07:25:00;12.00;;;5.93;;
75465;SDS011;64049;46.290;44.240;2022-12-29T07:27:26;8.75;;;5.25;;
75465;SDS011;64049;46.290;44.240;2022-12-29T07:29:52;8.80;;;3.47;;
75465;SDS011;64049;46.290;44.240;2022-12-29T07:32:18;8.65;;;3.70;;
75465;SDS011;64049;46.290;44.240;2022-12-29T07:34:44;12.65;;;5.97;;
75465;SDS011;64049;46.290;44.240;2022-12-29T07:37:12;7.43;;;3.00;;
75465;SDS011;64049;46.290;44.240;2022-12-29T07:39:41;7.38;;;3.25;;
75465;SDS011;64049;46.290;44.240;2022-12-29T07:42:07;7.38;;;2.42;;
75465;SDS011;64049;46.290;44.240;2022-12-29T07:44:40;9.57;;;4.10;;
75465;SDS011;64049;46.290;44.240;2022-12-29T07:47:17;9.57;;;4.65;;
75465;SDS011;64049;46.290;44.240;2022-12-29T07:49:43;13.95;;;6.18;;
75465;SDS011;64049;46.290;44.240;2022-12-29T07:52:09;6.93;;;2.90;;
75465;SDS011;64049;46.290;44.240;2022-12-29T07:54:35;8.52;;;3.60;;
75465;SDS011;64049;46.290;44.240;2022-12-29T07:57:01;7.47;;;3.42;;
75465;SDS011;64049;46.290;44.240;2022-12-29T07:59:27;12.05;;;3.42;;
75465;SDS011;64049;46.290;44.240;2022-12-29T08:01:53;6.53;;;2.72;;
75465;SDS011;64049;46.290;44.240;2022-12-29T08:04:19;11.25;;;4.75;;
75465;SDS011;64049;46.290;44.240;2022-12-29T08:06:45;7.97;;;4.40;;
75465;SDS011;64049;46.290;44.240;2022-12-29T08:09:11;9.98;;;4.35;;
75465;SDS011;64049;46.290;44.240;2022-12-29T08:11:37;9.57;;;2.67;;
75465;SDS011;64049;46.290;44.240;2022-12-29T08:14:03;5.97;;;2.80;;
75465;SDS011;64049;46.290;44.240;2022-12-29T08:16:30;7.97;;;4.20;;
75465;SDS011;64049;46.290;44.240;2022-12-29T08:18:56;5.25;;;2.20;;
75465;SDS011;64049;46.290;44.240;2022-12-29T08:21:22;12.00;;;5.28;;
75465;SDS011;64049;46.290;44.240;2022-12-29T08:23:48;7.60;;;3.13;;
75465;SDS011;64049;46.290;44.240;2022-12-29T08:26:13;8.45;;;3.65;;
75465;SDS011;64049;46.290;44.240;2022-12-29T08:28:39;9.40;;;3.45;;
75465;SDS011;64049;46.290;44.240;2022-12-29T08:31:05;7.88;;;3.03;;
75465;SDS011;64049;46.290;44.240;2022-12-29T08:33:33;6.97;;;3.40;;
75465;SDS011;64049;46.290;44.240;2022-12-29T08:36:00;10.25;;;3.60;;
75465;SDS011;64049;46.290;44.240;2022-12-29T08:38:28;5.07;;;2.15;;
75465;SDS011;64049;46.290;44.240;2022-12-29T08:40:54;7.03;;;2.75;;
75465;SDS011;64049;46.290;44.240;2022-12-29T08:45:50;6.97;;;3.00;;
75465;SDS011;64049;46.290;44.240;2022-12-29T08:48:16;5.68;;;2.50;;
75465;SDS011;64049;46.290;44.240;2022-12-29T08:50:45;9.07;;;2.70;;
75465;SDS011;64049;46.290;44.240;2022-12-29T08:53:13;5.35;;;2.25;;
75465;SDS011;64049;46.290;44.240;2022-12-29T08:55:39;5.70;;;2.22;;
75465;SDS011;64049;46.290;44.240;2022-12-29T08:58:06;6.32;;;2.30;;
75465;SDS011;64049;46.290;44.240;2022-12-29T09:00:34;5.97;;;2.30;;
75465;SDS011;64049;46.290;44.240;2022-12-29T09:03:02;1.80;;;0.82;;
75465;SDS011;64049;46.290;44.240;2022-12-29T09:05:28;4.45;;;1.73;;
75465;SDS011;64049;46.290;44.240;2022-12-29T09:07:54;5.20;;;2.00;;
75465;SDS011;64049;46.290;44.240;2022-12-29T09:10:20;7.35;;;1.63;;
75465;SDS011;64049;46.290;44.240;2022-12-29T09:12:46;6.40;;;1.98;;
75465;SDS011;64049;46.290;44.240;2022-12-29T09:15:12;5.45;;;1.73;;
75465;SDS011;64049;46.290;44.240;2022-12-29T09:17:38;6.95;;;2.08;;
75465;SDS011;64049;46.290;44.240;2022-12-29T09:20:14;3.90;;;1.23;;
75465;SDS011;64049;46.290;44.240;2022-12-29T09:22:43;10.35;;;1.90;;
75465;SDS011;64049;46.290;44.240;2022-12-29T09:25:10;5.05;;;1.48;;
75465;SDS011;64049;46.290;44.240;2022-12-29T09:27:36;5.80;;;2.38;;
75465;SDS011;64049;46.290;44.240;2022-12-29T09:30:03;6.57;;;2.10;;
75465;SDS011;64049;46.290;44.240;2022-12-29T09:32:31;4.10;;;1.52;;
75465;SDS011;64049;46.290;44.240;2022-12-29T09:34:58;6.95;;;3.00;;
75465;SDS011;64049;46.290;44.240;2022-12-29T09:37:24;3.60;;;1.33;;
75465;SDS011;64049;46.290;44.240;2022-12-29T09:39:50;6.13;;;1.77;;
75465;SDS011;64049;46.290;44.240;2022-12-29T09:42:19;3.22;;;1.10;;
75465;SDS011;64049;46.290;44.240;2022-12-29T09:44:57;4.03;;;1.38;;
75465;SDS011;64049;46.290;44.240;2022-12-29T09:47:26;3.95;;;1.55;;
75465;SDS011;64049;46.290;44.240;2022-12-29T09:52:21;4.03;;;1.52;;
75465;SDS011;64049;46.290;44.240;2022-12-29T09:55:36;6.85;;;1.95;;
75465;SDS011;64049;46.290;44.240;2022-12-29T10:00:14;4.65;;;1.92;;
75465;SDS011;64049;46.290;44.240;2022-12-29T10:02:44;4.05;;;1.48;;
75465;SDS011;64049;46.290;44.240;2022-12-29T10:05:27;2.95;;;1.23;;
75465;SDS011;64049;46.290;44.240;2022-12-29T10:08:19;4.03;;;1.88;;
75465;SDS011;64049;46.290;44.240;2022-12-29T10:22:22;4.90;;;1.80;;
75465;SDS011;64049;46.290;44.240;2022-12-29T10:24:50;7.68;;;2.13;;
75465;SDS011;64049;46.290;44.240;2022-12-29T10:27:19;6.03;;;2.15;;
75465;SDS011;64049;46.290;44.240;2022-12-29T10:29:48;6.75;;;2.10;;
75465;SDS011;64049;46.290;44.240;2022-12-29T10:32:34;6.35;;;2.30;;
75465;SDS011;64049;46.290;44.240;2022-12-29T10:35:07;4.80;;;1.35;;
75465;SDS011;64049;46.290;44.240;2022-12-29T10:43:01;2.75;;;1.08;;
75465;SDS011;64049;46.290;44.240;2022-12-29T10:46:12;3.65;;;1.30;;
75465;SDS011;64049;46.290;44.240;2022-12-29T10:48:45;7.43;;;2.30;;
75465;SDS011;64049;46.290;44.240;2022-12-29T10:51:18;3.92;;;1.73;;
75465;SDS011;64049;46.290;44.240;2022-12-29T10:56:34;4.43;;;1.77;;
75465;SDS011;64049;46.290;44.240;2022-12-29T10:59:19;5.45;;;1.58;;
75465;SDS011;64049;46.290;44.240;2022-12-29T11:07:36;6.07;;;2.10;;
75465;SDS011;64049;46.290;44.240;2022-12-29T11:10:28;10.35;;;2.65;;
75465;SDS011;64049;46.290;44.240;2022-12-29T11:12:58;3.92;;;1.67;;
75465;SDS011;64049;46.290;44.240;2022-12-29T11:15:42;6.15;;;2.10;;
75465;SDS011;64049;46.290;44.240;2022-12-29T11:21:03;5.75;;;2.03;;
75465;SDS011;64049;46.290;44.240;2022-12-29T11:23:35;7.82;;;2.78;;
75465;SDS011;64049;46.290;44.240;2022-12-29T11:26:13;7.13;;;2.30;;
75465;SDS011;64049;46.290;44.240;2022-12-29T11:28:46;11.85;;;3.60;;
75465;SDS011;64049;46.290;44.240;2022-12-29T11:31:27;7.15;;;3.13;;
75465;SDS011;64049;46.290;44.240;2022-12-29T11:33:53;5.88;;;2.95;;
75465;SDS011;64049;46.290;44.240;2022-12-29T11:36:23;6.43;;;2.67;;
75465;SDS011;64049;46.290;44.240;2022-12-29T11:38:50;5.65;;;1.98;;
75465;SDS011;64049;46.290;44.240;2022-12-29T11:41:23;10.23;;;2.90;;
75465;SDS011;64049;46.290;44.240;2022-12-29T11:43:55;7.47;;;2.78;;
75465;SDS011;64049;46.290;44.240;2022-12-29T11:46:25;5.70;;;2.53;;
75465;SDS011;64049;46.290;44.240;2022-12-29T11:48:56;5.63;;;2.33;;
75465;SDS011;64049;46.290;44.240;2022-12-29T11:51:44;4.80;;;2.13;;
75465;SDS011;64049;46.290;44.240;2022-12-29T11:54:34;4.32;;;2.20;;
75465;SDS011;64049;46.290;44.240;2022-12-29T11:57:10;8.48;;;3.58;;
75465;SDS011;64049;46.290;44.240;2022-12-29T11:59:42;3.78;;;1.88;;
75465;SDS011;64049;46.290;44.240;2022-12-29T12:05:19;9.70;;;2.92;;
75465;SDS011;64049;46.290;44.240;2022-12-29T12:07:54;7.45;;;3.03;;
75465;SDS011;64049;46.290;44.240;2022-12-29T12:10:36;7.47;;;2.92;;
75465;SDS011;64049;46.290;44.240;2022-12-29T12:13:29;8.43;;;3.25;;
75465;SDS011;64049;46.290;44.240;2022-12-29T12:18:47;8.70;;;2.75;;
75465;SDS011;64049;46.290;44.240;2022-12-29T12:23:58;6.15;;;2.40;;
75465;SDS011;64049;46.290;44.240;2022-12-29T12:26:34;5.70;;;2.90;;
75465;SDS011;64049;46.290;44.240;2022-12-29T12:29:12;8.13;;;2.83;;
75465;SDS011;64049;46.290;44.240;2022-12-29T12:31:51;7.35;;;2.50;;
75465;SDS011;64049;46.290;44.240;2022-12-29T12:34:36;4.88;;;2.17;;
75465;SDS011;64049;46.290;44.240;2022-12-29T12:43:16;5.53;;;2.05;;
75465;SDS011;64049;46.290;44.240;2022-12-29T12:51:47;8.55;;;2.78;;
75465;SDS011;64049;46.290;44.240;2022-12-29T12:58:11;10.70;;;2.70;;
75465;SDS011;64049;46.290;44.240;2022-12-29T13:06:33;6.15;;;2.25;;
75465;SDS011;64049;46.290;44.240;2022-12-29T13:14:04;8.85;;;2.58;;
75465;SDS011;64049;46.290;44.240;2022-12-29T13:19:05;9.88;;;3.13;;
75465;SDS011;64049;46.290;44.240;2022-12-29T13:27:53;5.53;;;2.28;;
75465;SDS011;64049;46.290;44.240;2022-12-29T13:30:42;2.83;;;1.45;;
75465;SDS011;64049;46.290;44.240;2022-12-29T13:33:23;5.32;;;1.92;;
75465;SDS011;64049;46.290;44.240;2022-12-29T13:43:56;6.57;;;1.90;;
75465;SDS011;64049;46.290;44.240;2022-12-29T13:46:25;7.90;;;2.75;;
75465;SDS011;64049;46.290;44.240;2022-12-29T13:51:25;10.90;;;3.78;;
75465;SDS011;64049;46.290;44.240;2022-12-29T13:54:12;8.70;;;1.98;;
75465;SDS011;64049;46.290;44.240;2022-12-29T13:56:49;4.30;;;1.90;;
75465;SDS011;64049;46.290;44.240;2022-12-29T13:59:28;8.20;;;2.83;;
75465;SDS011;64049;46.290;44.240;2022-12-29T14:02:12;7.72;;;2.95;;
75465;SDS011;64049;46.290;44.240;2022-12-29T14:05:15;6.82;;;2.58;;
75465;SDS011;64049;46.290;44.240;2022-12-29T14:07:59;13.43;;;2.80;;
75465;SDS011;64049;46.290;44.240;2022-12-29T14:10:34;5.68;;;1.60;;
75465;SDS011;64049;46.290;44.240;2022-12-29T14:13:12;8.93;;;3.63;;
75465;SDS011;64049;46.290;44.240;2022-12-29T14:15:40;8.63;;;3.40;;
75465;SDS011;64049;46.290;44.240;2022-12-29T14:18:10;6.15;;;2.40;;
75465;SDS011;64049;46.290;44.240;2022-12-29T14:23:42;8.77;;;2.88;;
75465;SDS011;64049;46.290;44.240;2022-12-29T14:26:11;7.57;;;2.25;;
75465;SDS011;64049;46.290;44.240;2022-12-29T14:31:51;8.13;;;2.50;;
75465;SDS011;64049;46.290;44.240;2022-12-29T14:39:32;4.07;;;1.88;;
75465;SDS011;64049;46.290;44.240;2022-12-29T14:44:50;3.35;;;1.38;;
75465;SDS011;64049;46.290;44.240;2022-12-29T14:49:52;3.53;;;1.33;;
75465;SDS011;64049;46.290;44.240;2022-12-29T14:52:21;4.80;;;2.08;;
75465;SDS011;64049;46.290;44.240;2022-12-29T14:54:51;5.75;;;1.88;;
75465;SDS011;64049;46.290;44.240;2022-12-29T14:57:21;9.82;;;2.50;;
75465;SDS011;64049;46.290;44.240;2022-12-29T14:59:53;7.93;;;2.40;;
75465;SDS011;64049;46.290;44.240;2022-12-29T15:02:32;4.57;;;1.83;;
75465;SDS011;64049;46.290;44.240;2022-12-29T15:05:03;7.05;;;2.00;;
75465;SDS011;64049;46.290;44.240;2022-12-29T15:07:32;6.22;;;1.95;;
75465;SDS011;64049;46.290;44.240;2022-12-29T15:10:07;8.80;;;2.47;;
75465;SDS011;64049;46.290;44.240;2022-12-29T15:12:48;5.75;;;1.92;;
75465;SDS011;64049;46.290;44.240;2022-12-29T15:15:22;2.28;;;1.20;;
75465;SDS011;64049;46.290;44.240;2022-12-29T15:17:52;8.82;;;2.85;;
75465;SDS011;64049;46.290;44.240;2022-12-29T15:20:28;9.98;;;3.05;;
75465;SDS011;64049;46.290;44.240;2022-12-29T15:22:57;5.53;;;2.63;;
75465;SDS011;64049;46.290;44.240;2022-12-29T15:25:27;6.80;;;2.45;;
75465;SDS011;64049;46.290;44.240;2022-12-29T15:27:59;7.10;;;2.85;;
75465;SDS011;64049;46.290;44.240;2022-12-29T15:30:27;8.18;;;2.85;;
75465;SDS011;64049;46.290;44.240;2022-12-29T15:32:53;12.27;;;3.90;;
75465;SDS011;64049;46.290;44.240;2022-12-29T15:37:54;8.63;;;2.85;;
75465;SDS011;64049;46.290;44.240;2022-12-29T15:40:21;10.32;;;3.03;;
75465;SDS011;64049;46.290;44.240;2022-12-29T15:43:09;8.02;;;2.88;;
75465;SDS011;64049;46.290;44.240;2022-12-29T15:45:39;15.35;;;3.00;;
75465;SDS011;64049;46.290;44.240;2022-12-29T15:48:05;5.43;;;1.92;;
75465;SDS011;64049;46.290;44.240;2022-12-29T15:50:41;7.03;;;2.17;;
75465;SDS011;64049;46.290;44.240;2022-12-29T15:53:18;8.25;;;3.10;;
75465;SDS011;64049;46.290;44.240;2022-12-29T15:56:01;5.93;;;1.58;;
75465;SDS011;64049;46.290;44.240;2022-12-29T15:58:39;12.35;;;3.53;;
75465;SDS011;64049;46.290;44.240;2022-12-29T16:01:42;10.30;;;2.95;;
75465;SDS011;64049;46.290;44.240;2022-12-29T16:09:32;4.32;;;1.15;;
75465;SDS011;64049;46.290;44.240;2022-12-29T16:18:11;9.77;;;3.30;;
75465;SDS011;64049;46.290;44.240;2022-12-29T16:29:30;17.33;;;3.88;;
75465;SDS011;64049;46.290;44.240;2022-12-29T16:31:57;8.98;;;2.65;;
75465;SDS011;64049;46.290;44.240;2022-12-29T16:49:06;6.10;;;2.42;;
75465;SDS011;64049;46.290;44.240;2022-12-29T16:51:42;7.85;;;2.28;;
75465;SDS011;64049;46.290;44.240;2022-12-29T16:56:57;8.63;;;2.45;;
75465;SDS011;64049;46.290;44.240;2022-12-29T16:59:25;7.75;;;2.30;;
75465;SDS011;64049;46.290;44.240;2022-12-29T17:02:15;4.57;;;1.95;;
75465;SDS011;64049;46.290;44.240;2022-12-29T17:04:44;10.00;;;2.75;;
75465;SDS011;64049;46.290;44.240;2022-12-29T17:07:19;5.25;;;2.53;;
75465;SDS011;64049;46.290;44.240;2022-12-29T17:09:48;7.95;;;3.25;;
75465;SDS011;64049;46.290;44.240;2022-12-29T17:12:19;5.00;;;1.67;;
75465;SDS011;64049;46.290;44.240;2022-12-29T17:14:54;8.93;;;3.38;;
75465;SDS011;64049;46.290;44.240;2022-12-29T17:20:03;9.98;;;3.40;;
75465;SDS011;64049;46.290;44.240;2022-12-29T17:22:43;10.35;;;3.15;;
75465;SDS011;64049;46.290;44.240;2022-12-29T17:25:13;19.10;;;4.00;;
75465;SDS011;64049;46.290;44.240;2022-12-29T17:27:42;12.00;;;4.20;;
75465;SDS011;64049;46.290;44.240;2022-12-29T17:30:16;15.20;;;3.95;;
75465;SDS011;64049;46.290;44.240;2022-12-29T17:32:52;9.23;;;3.95;;
75465;SDS011;64049;46.290;44.240;2022-12-29T17:35:29;12.40;;;3.28;;
75465;SDS011;64049;46.290;44.240;2022-12-29T17:37:55;11.23;;;3.47;;
75465;SDS011;64049;46.290;44.240;2022-12-29T17:40:29;25.52;;;4.55;;
75465;SDS011;64049;46.290;44.240;2022-12-29T17:43:00;10.98;;;3.83;;
75465;SDS011;64049;46.290;44.240;2022-12-29T17:45:27;11.77;;;3.80;;
75465;SDS011;64049;46.290;44.240;2022-12-29T17:47:55;12.48;;;3.72;;
75465;SDS011;64049;46.290;44.240;2022-12-29T17:50:24;12.93;;;3.30;;
75465;SDS011;64049;46.290;44.240;2022-12-29T17:52:57;15.43;;;4.22;;
75465;SDS011;64049;46.290;44.240;2022-12-29T17:55:26;11.80;;;3.50;;
75465;SDS011;64049;46.290;44.240;2022-12-29T17:57:52;10.85;;;4.47;;
75465;SDS011;64049;46.290;44.240;2022-12-29T18:00:20;11.55;;;4.15;;
75465;SDS011;64049;46.290;44.240;2022-12-29T18:02:48;9.25;;;3.15;;
75465;SDS011;64049;46.290;44.240;2022-12-29T18:05:25;8.70;;;2.85;;
75465;SDS011;64049;46.290;44.240;2022-12-29T18:07:53;10.75;;;4.43;;
75465;SDS011;64049;46.290;44.240;2022-12-29T18:10:21;8.35;;;3.50;;
75465;SDS011;64049;46.290;44.240;2022-12-29T18:12:49;7.63;;;3.05;;
75465;SDS011;64049;46.290;44.240;2022-12-29T18:17:43;12.95;;;3.38;;
75465;SDS011;64049;46.290;44.240;2022-12-29T18:20:09;9.13;;;4.40;;
75465;SDS011;64049;46.290;44.240;2022-12-29T18:22:35;9.18;;;3.30;;
75465;SDS011;64049;46.290;44.240;2022-12-29T18:25:01;10.13;;;3.67;;